Terminal Aerodrome Forecast
Issued by NWS Charleston, WV

Current Version | Previous Version | Graphics & Text | Print | Product List | Glossary On
Versions: 1 2 3 4 5 6 7 8 9 10 11 12 13 14 15 16 17 18 19 20 21
310
FTUS41 KRLX 220902 AAA
TAFCRW
TAF AMD
KCRW 220902Z 2209/2306 02006KT 6SM SHRA OVC045
      TEMPO 2210/2213 OVC025
     FM221300 03005KT P6SM OVC025
     FM221600 02007KT 3SM SHRA SCT006 OVC010
     FM222300 03007KT 6SM BR OVC015=

USA.gov is the U.S. government's official web portal to all federal, state and local government web resources and services.